Time;durP1;ratioP1;P1;durP2;ratioP2;P2;SDS_P1;SDS_P2;PMS_P1;PMS_P2;Temp;Humidity;BMP_temperature;BMP_pressure;BME280_temperature;BME280_humidity;BME280_pressure;Samples;Min_cycle;Max_cycle;Signal;HPM_P1;HPM_P2
2021/03/26 00:00:37;;;;;;;22.10;9.82;;;4.70;90.20;;;;;;4969302;28;20449;-92
2021/03/26 00:03:19;;;;;;;19.07;9.47;;;4.70;90.00;;;;;;4970483;28;20437;-91
2021/03/26 00:06:30;;;;;;;18.55;9.30;;;4.70;90.00;;;;;;4938164;29;20414;-92
2021/03/26 00:09:48;;;;;;;18.80;9.15;;;4.70;89.50;;;;;;4971337;28;20441;-91
2021/03/26 00:13:24;;;;;;;18.92;9.48;;;4.70;89.20;;;;;;4971814;29;20404;-91
2021/03/26 00:18:55;;;;;;;19.98;9.35;;;4.60;89.60;;;;;;5024990;28;20433;-92
2021/03/26 00:22:01;;;;;;;20.80;9.85;;;4.50;90.20;;;;;;5026801;28;20413;-91
2021/03/26 00:28:46;;;;;;;20.58;9.90;;;4.40;90.60;;;;;;5047025;28;20461;-94
2021/03/26 00:32:02;;;;;;;18.80;9.53;;;4.40;90.70;;;;;;4969845;29;20398;-91
2021/03/26 00:35:27;;;;;;;18.92;9.32;;;4.40;90.50;;;;;;4967798;28;20971;-92
2021/03/26 00:38:31;;;;;;;20.02;9.85;;;4.40;90.20;;;;;;4967795;29;20425;-91
2021/03/26 00:42:01;;;;;;;19.95;9.48;;;4.30;90.80;;;;;;4967705;28;20421;-92
2021/03/26 00:45:00;;;;;;;18.53;9.23;;;4.20;90.60;;;;;;4967953;29;20406;-91
2021/03/26 00:47:50;;;;;;;19.05;9.15;;;4.20;90.40;;;;;;5497168;22;20458;-91
2021/03/26 00:50:42;;;;;;;19.75;9.38;;;4.10;90.40;;;;;;5028301;28;20413;-90
2021/03/26 00:53:23;;;;;;;18.80;9.25;;;4.10;90.00;;;;;;5010098;28;20433;-91
2021/03/26 00:56:07;;;;;;;20.65;9.98;;;4.20;89.80;;;;;;5046013;28;20503;-90
2021/03/26 00:58:43;;;;;;;20.67;9.90;;;4.30;89.40;;;;;;5029788;28;20407;-90
2021/03/26 01:01:37;;;;;;;21.20;10.07;;;4.30;88.80;;;;;;5028097;28;20425;-91
2021/03/26 01:04:22;;;;;;;20.08;9.98;;;4.40;87.60;;;;;;5027484;28;20438;-90
2021/03/26 01:06:53;;;;;;;23.08;10.95;;;4.40;87.80;;;;;;5027525;28;20411;-91
2021/03/26 01:09:25;;;;;;;23.25;10.88;;;4.50;87.40;;;;;;5043830;28;20399;-90
2021/03/26 01:12:01;;;;;;;23.55;10.73;;;4.40;89.10;;;;;;5012089;28;20423;-90
2021/03/26 01:14:35;;;;;;;22.05;11.07;;;4.40;88.90;;;;;;5027151;28;20435;-91
2021/03/26 01:17:44;;;;;;;24.60;11.00;;;4.40;89.30;;;;;;5046317;28;20423;-91
2021/03/26 01:20:57;;;;;;;24.48;10.98;;;4.40;88.90;;;;;;4999088;28;20419;-91
2021/03/26 01:23:53;;;;;;;22.25;11.00;;;4.30;90.10;;;;;;5035410;28;20399;-91
2021/03/26 01:29:49;;;;;;;24.85;11.68;;;4.20;90.40;;;;;;5322225;22;20438;-91
2021/03/26 01:33:04;;;;;;;24.52;12.43;;;4.20;90.50;;;;;;5010640;28;20778;-91
2021/03/26 01:36:22;;;;;;;26.25;12.45;;;4.10;90.60;;;;;;5010009;28;20414;-91
2021/03/26 01:39:28;;;;;;;26.77;13.43;;;4.20;91.00;;;;;;4934939;28;20429;-91
2021/03/26 01:42:30;;;;;;;27.48;13.55;;;4.20;91.00;;;;;;5030350;23;20452;-91
2021/03/26 01:45:49;;;;;;;30.17;13.55;;;4.00;91.20;;;;;;5019725;28;20412;-92
2021/03/26 01:49:05;;;;;;;27.90;13.37;;;4.10;91.30;;;;;;5015632;28;20467;-91
2021/03/26 01:52:18;;;;;;;26.35;12.95;;;4.10;91.70;;;;;;4953548;29;20439;-91
2021/03/26 01:55:41;;;;;;;31.88;13.07;;;4.10;91.70;;;;;;4954007;28;20827;-91
2021/03/26 01:58:45;;;;;;;29.40;13.27;;;3.90;92.10;;;;;;4915279;29;20422;-91
2021/03/26 02:02:28;;;;;;;27.77;13.38;;;3.90;92.60;;;;;;4858818;29;20456;-91
2021/03/26 02:05:27;;;;;;;30.85;13.43;;;3.80;93.00;;;;;;4860928;29;20426;-92
2021/03/26 02:08:51;;;;;;;30.07;13.93;;;3.70;93.80;;;;;;4839477;29;20491;-92
2021/03/26 02:12:04;;;;;;;31.13;14.48;;;3.70;93.60;;;;;;4828549;29;20849;-91
2021/03/26 02:18:06;;;;;;;29.83;14.35;;;3.80;93.60;;;;;;5223177;23;20427;-92
2021/03/26 02:21:23;;;;;;;31.13;14.65;;;3.70;94.10;;;;;;5036039;28;20462;-91
2021/03/26 02:24:56;;;;;;;33.25;14.68;;;3.70;94.30;;;;;;4952612;29;20456;-91
2021/03/26 02:34:11;;;;;;;34.97;15.67;;;3.60;96.20;;;;;;5149331;22;22174;-91
2021/03/26 02:37:29;;;;;;;32.42;14.15;;;3.80;96.30;;;;;;5202931;23;20465;-92
2021/03/26 02:41:06;;;;;;;33.33;14.40;;;3.80;96.30;;;;;;5053360;28;20437;-91
2021/03/26 02:56:26;;;;;;;30.98;14.68;;;3.80;95.40;;;;;;5638404;22;20380;-91
2021/03/26 03:00:12;;;;;;;33.47;15.10;;;3.80;95.30;;;;;;4997550;28;20486;-92
2021/03/26 03:03:25;;;;;;;31.65;14.93;;;3.90;95.00;;;;;;5013807;28;20488;-91
2021/03/26 03:10:34;;;;;;;29.93;13.80;;;3.90;95.10;;;;;;5008306;28;20454;-91
2021/03/26 03:13:55;;;;;;;30.90;13.82;;;3.90;94.70;;;;;;5006107;28;20411;-91
2021/03/26 03:17:18;;;;;;;33.33;13.80;;;4.00;94.00;;;;;;5008945;28;20438;-92
2021/03/26 03:20:58;;;;;;;31.50;13.83;;;3.90;93.70;;;;;;4898384;29;20416;-92
2021/03/26 03:24:41;;;;;;;30.02;13.18;;;3.90;94.30;;;;;;4893861;29;20435;-91
2021/03/26 03:42:48;;;;;;;34.42;14.63;;;3.50;95.40;;;;;;4822709;29;20499;-92
2021/03/26 03:52:13;;;;;;;30.13;13.63;;;3.60;95.20;;;;;;5357717;22;20439;-92
2021/03/26 03:55:35;;;;;;;31.30;14.25;;;3.70;95.20;;;;;;5011603;28;20451;-93
2021/03/26 03:58:44;;;;;;;30.33;13.43;;;3.70;95.50;;;;;;5049027;28;20434;-92
2021/03/26 04:02:04;;;;;;;33.72;14.70;;;3.60;96.00;;;;;;5023404;28;20411;-92
2021/03/26 04:05:16;;;;;;;30.70;14.07;;;3.70;96.70;;;;;;5048031;28;20415;-96
2021/03/26 04:08:08;;;;;;;33.45;14.73;;;3.60;97.30;;;;;;5027583;28;20419;-93
2021/03/26 04:10:38;;;;;;;32.30;14.50;;;3.60;98.20;;;;;;5025685;28;20751;-92
2021/03/26 04:13:59;;;;;;;31.00;14.55;;;3.60;98.30;;;;;;5026965;28;20529;-92
2021/03/26 04:41:54;;;;;;;32.08;14.30;;;3.80;97.20;;;;;;5340533;22;20432;-93
2021/03/26 04:51:56;;;;;;;36.05;16.13;;;3.70;98.80;;;;;;5047648;28;20402;-92
2021/03/26 04:55:35;;;;;;;37.55;16.75;;;3.60;99.90;;;;;;5074437;22;20438;-96
2021/03/26 04:58:16;;;;;;;35.60;15.65;;;3.60;99.60;;;;;;5065129;23;20460;-93
2021/03/26 05:01:14;;;;;;;36.03;15.38;;;3.60;99.80;;;;;;5029986;28;20412;-91
2021/03/26 05:05:13;;;;;;;33.75;14.85;;;3.80;99.30;;;;;;5029421;28;20411;-90
2021/03/26 05:17:08;;;;;;;28.42;13.60;;;3.80;96.80;;;;;;5354639;23;20459;-92
2021/03/26 05:20:21;;;;;;;32.08;14.02;;;3.70;96.30;;;;;;4837720;29;20457;-90
2021/03/26 05:23:55;;;;;;;34.33;13.93;;;3.60;96.60;;;;;;4835818;29;20434;-91
2021/03/26 05:27:12;;;;;;;30.75;14.07;;;3.60;96.80;;;;;;4823125;29;20595;-91
2021/03/26 05:30:21;;;;;;;35.22;14.35;;;3.40;97.20;;;;;;4803148;29;20452;-95
2021/03/26 05:33:41;;;;;;;27.10;13.45;;;3.60;96.50;;;;;;4782507;29;20447;-92
2021/03/26 05:36:40;;;;;;;32.60;15.00;;;3.90;96.30;;;;;;4761803;30;20983;-94
2021/03/26 05:39:47;;;;;;;33.67;17.30;;;3.90;96.20;;;;;;4762212;30;20540;-90
2021/03/26 05:43:41;;;;;;;37.60;16.60;;;3.80;96.30;;;;;;4761541;30;20447;-95
2021/03/26 05:47:31;;;;;;;30.70;15.43;;;3.90;96.50;;;;;;5344061;22;20602;-91
2021/03/26 05:57:37;;;;;;;27.75;12.02;;;4.50;94.10;;;;;;5036487;28;20441;-93
2021/03/26 06:00:52;;;;;;;25.67;11.80;;;5.10;92.30;;;;;;5006041;28;20408;-93
2021/03/26 06:04:11;;;;;;;25.40;11.57;;;5.40;91.90;;;;;;5032469;28;20425;-94
2021/03/26 06:07:19;;;;;;;24.50;11.40;;;5.40;90.80;;;;;;5015655;28;20411;-91
2021/03/26 06:16:39;;;;;;;27.88;14.98;;;5.90;86.80;;;;;;4975078;28;20523;-96
2021/03/26 06:20:21;;;;;;;26.40;11.65;;;6.10;85.70;;;;;;4902507;29;20445;-96
2021/03/26 06:24:04;;;;;;;26.08;11.40;;;6.50;83.70;;;;;;4826238;29;20454;-96
2021/03/26 06:32:52;;;;;;;22.23;9.48;;;8.00;74.40;;;;;;5011121;28;20438;-96
2021/03/26 06:35:59;;;;;;;18.92;9.45;;;9.00;71.20;;;;;;5013090;28;20450;-95
2021/03/26 06:39:41;;;;;;;20.17;9.20;;;10.20;63.80;;;;;;5010941;28;20413;-95
2021/03/26 06:43:36;;;;;;;22.27;9.63;;;10.00;61.70;;;;;;5017398;28;20402;-96
2021/03/26 06:49:46;;;;;;;20.55;9.75;;;11.50;57.30;;;;;;5032468;23;20793;-92
2021/03/26 06:52:55;;;;;;;17.97;9.27;;;12.10;55.10;;;;;;5028757;28;20422;-91
2021/03/26 06:56:09;;;;;;;19.88;8.77;;;12.80;51.90;;;;;;4929943;29;20451;-91
2021/03/26 06:58:53;;;;;;;16.55;8.25;;;13.30;50.20;;;;;;4930330;29;20438;-91
2021/03/26 07:01:30;;;;;;;15.93;7.78;;;13.60;49.80;;;;;;4932523;29;20442;-92
2021/03/26 07:04:47;;;;;;;16.80;7.53;;;13.90;47.90;;;;;;4931595;29;20459;-92
2021/03/26 07:07:22;;;;;;;20.38;8.15;;;14.10;47.00;;;;;;4934209;29;20435;-92
2021/03/26 07:10:17;;;;;;;18.67;7.70;;;14.10;47.10;;;;;;4950186;29;20460;-93
2021/03/26 07:13:09;;;;;;;16.38;8.50;;;14.10;46.50;;;;;;4934042;28;20456;-91
2021/03/26 07:31:23;;;;;;;18.45;7.75;;;13.70;48.00;;;;;;6132294;22;20394;-95
2021/03/26 07:34:31;;;;;;;17.73;7.85;;;12.80;49.10;;;;;;4995882;28;20489;-95
2021/03/26 07:37:22;;;;;;;18.58;7.60;;;11.90;52.50;;;;;;4943453;29;20473;-92
2021/03/26 07:40:32;;;;;;;16.17;8.10;;;11.60;54.50;;;;;;4924070;29;20602;-91
2021/03/26 07:43:39;;;;;;;17.33;7.63;;;11.70;54.10;;;;;;4926429;29;20427;-95
2021/03/26 07:50:22;;;;;;;16.50;8.13;;;11.70;54.50;;;;;;5379944;22;20474;-94
2021/03/26 07:56:50;;;;;;;14.38;8.00;;;12.00;54.30;;;;;;5237073;22;20408;-91
2021/03/26 08:00:33;;;;;;;17.98;8.50;;;11.70;55.60;;;;;;5023848;28;20498;-91
2021/03/26 08:03:41;;;;;;;18.27;8.07;;;11.50;56.40;;;;;;5014023;28;20510;-91
2021/03/26 08:06:26;;;;;;;17.23;8.55;;;11.80;56.90;;;;;;5019778;28;20395;-96
2021/03/26 08:09:30;;;;;;;19.73;8.75;;;12.10;56.10;;;;;;5036197;28;20425;-95
2021/03/26 08:12:09;;;;;;;15.38;8.63;;;12.60;53.50;;;;;;5030996;28;20430;-91
2021/03/26 08:14:56;;;;;;;15.48;8.10;;;13.00;54.10;;;;;;5009780;28;20432;-96
2021/03/26 08:17:46;;;;;;;18.98;8.23;;;13.40;52.00;;;;;;5021379;28;20436;-95
2021/03/26 08:20:32;;;;;;;16.42;8.30;;;13.70;51.60;;;;;;5016382;28;20776;-92
2021/03/26 08:23:29;;;;;;;16.95;8.65;;;13.50;50.20;;;;;;5015739;28;20425;-95
2021/03/26 08:26:02;;;;;;;16.02;8.90;;;13.90;50.50;;;;;;5015163;28;20884;-95
2021/03/26 08:28:44;;;;;;;17.08;9.50;;;14.00;50.10;;;;;;5015691;28;20429;-94
2021/03/26 08:31:30;;;;;;;17.70;9.00;;;13.60;50.20;;;;;;5015188;28;20479;-91
2021/03/26 08:34:24;;;;;;;17.27;8.87;;;13.50;51.40;;;;;;5018947;28;20428;-96
2021/03/26 08:37:07;;;;;;;19.40;9.63;;;13.60;50.90;;;;;;5014021;28;20760;-95
2021/03/26 08:39:43;;;;;;;19.92;9.70;;;13.90;49.90;;;;;;5014241;28;20458;-96
2021/03/26 08:42:22;;;;;;;23.15;10.60;;;14.20;49.30;;;;;;5015083;28;20424;-96
2021/03/26 08:44:55;;;;;;;18.73;10.07;;;14.10;49.30;;;;;;5024361;28;20431;-93
2021/03/26 08:48:19;;;;;;;21.07;10.30;;;13.70;51.00;;;;;;5025603;28;20415;-91
2021/03/26 08:51:35;;;;;;;18.70;9.85;;;14.00;50.60;;;;;;4950984;28;20465;-92
2021/03/26 08:55:03;;;;;;;18.87;10.40;;;14.50;50.90;;;;;;5004067;28;20401;-92
2021/03/26 08:58:02;;;;;;;20.40;10.55;;;14.80;49.90;;;;;;4986437;28;20438;-94
2021/03/26 09:01:14;;;;;;;24.05;10.25;;;14.80;49.30;;;;;;5005394;28;20453;-96
2021/03/26 09:04:20;;;;;;;20.17;10.45;;;15.00;51.90;;;;;;4980388;28;20579;-95
2021/03/26 09:06:55;;;;;;;21.45;10.93;;;14.80;49.90;;;;;;4977326;28;20492;-92
2021/03/26 09:09:57;;;;;;;22.10;10.83;;;13.50;54.10;;;;;;4998021;28;20550;-90
2021/03/26 09:12:51;;;;;;;21.23;10.77;;;12.80;55.60;;;;;;5014756;28;20424;-92
2021/03/26 09:15:29;;;;;;;23.20;10.80;;;12.90;56.90;;;;;;5014415;28;20425;-91
2021/03/26 09:18:20;;;;;;;23.73;10.45;;;13.10;56.30;;;;;;5013896;28;20433;-91
2021/03/26 09:21:17;;;;;;;23.67;10.95;;;13.20;56.30;;;;;;5014183;28;20429;-92
2021/03/26 09:24:05;;;;;;;25.02;11.30;;;13.20;55.40;;;;;;5014679;28;20429;-92
2021/03/26 09:26:37;;;;;;;25.30;11.17;;;13.10;56.30;;;;;;5014633;28;20420;-91
2021/03/26 09:29:28;;;;;;;24.37;10.83;;;12.70;56.60;;;;;;5012914;28;20524;-90
2021/03/26 09:32:06;;;;;;;25.08;10.88;;;12.80;57.10;;;;;;5013016;28;20429;-90
2021/03/26 09:34:39;;;;;;;23.67;11.00;;;12.50;58.00;;;;;;5013874;28;20432;-91
2021/03/26 09:37:21;;;;;;;25.60;11.70;;;12.60;57.70;;;;;;5014130;28;20482;-91
2021/03/26 09:39:55;;;;;;;21.42;11.55;;;12.30;58.10;;;;;;5017157;28;20420;-93
2021/03/26 09:42:36;;;;;;;25.73;11.88;;;12.30;59.40;;;;;;5018516;28;20425;-91
2021/03/26 09:45:22;;;;;;;25.63;12.25;;;12.60;59.70;;;;;;5017979;28;20508;-91
2021/03/26 09:48:16;;;;;;;25.88;12.57;;;12.80;58.40;;;;;;5018091;28;20416;-91
2021/03/26 09:51:07;;;;;;;24.52;12.40;;;12.90;56.50;;;;;;5017497;28;20516;-91
2021/03/26 09:53:37;;;;;;;24.80;12.35;;;12.70;58.00;;;;;;5016519;28;20864;-92
2021/03/26 09:56:49;;;;;;;26.67;12.50;;;12.50;58.20;;;;;;5016922;28;20451;-89
2021/03/26 09:59:24;;;;;;;25.55;12.38;;;12.50;58.30;;;;;;4985129;28;20425;-91
2021/03/26 10:02:04;;;;;;;26.70;13.32;;;12.60;59.60;;;;;;5016655;28;20424;-92
2021/03/26 10:04:51;;;;;;;23.90;11.77;;;12.60;58.20;;;;;;5016363;28;20494;-92
2021/03/26 10:07:42;;;;;;;23.85;11.90;;;12.90;58.50;;;;;;5015757;28;20805;-90
2021/03/26 10:13:03;;;;;;;33.05;13.45;;;12.80;59.10;;;;;;5016061;28;20939;-89
2021/03/26 10:15:41;;;;;;;26.40;12.88;;;13.20;57.90;;;;;;5015571;28;20986;-86
2021/03/26 10:18:19;;;;;;;25.42;11.95;;;13.40;57.30;;;;;;5015880;28;20511;-89
2021/03/26 10:20:51;;;;;;;23.73;11.97;;;13.50;56.10;;;;;;5016711;28;20415;-89
2021/03/26 10:23:54;;;;;;;23.25;11.43;;;13.40;56.90;;;;;;5015846;28;20487;-89
2021/03/26 10:26:34;;;;;;;25.38;11.60;;;13.40;56.20;;;;;;5015331;28;20552;-89
2021/03/26 10:29:21;;;;;;;23.42;11.98;;;13.60;56.10;;;;;;5016693;28;20417;-90
2021/03/26 10:31:51;;;;;;;26.52;12.68;;;13.50;54.30;;;;;;5014219;28;20441;-89
2021/03/26 10:34:35;;;;;;;22.70;10.67;;;13.50;56.70;;;;;;5016307;28;20435;-89
2021/03/26 10:37:41;;;;;;;21.23;9.90;;;14.00;53.90;;;;;;5015605;28;20461;-89
2021/03/26 10:40:20;;;;;;;23.67;10.75;;;13.90;51.20;;;;;;4956210;28;20503;-91
2021/03/26 10:43:02;;;;;;;20.13;10.13;;;13.80;53.80;;;;;;4955712;29;20429;-88
2021/03/26 10:45:53;;;;;;;20.88;10.75;;;13.80;52.10;;;;;;4955855;29;20458;-88
2021/03/26 10:48:56;;;;;;;19.75;9.88;;;14.10;53.20;;;;;;4968978;28;20449;-96
2021/03/26 10:51:40;;;;;;;23.20;10.98;;;14.20;53.00;;;;;;4948049;29;20895;-95
2021/03/26 10:54:24;;;;;;;22.30;10.75;;;14.40;51.20;;;;;;4978908;28;20418;-93
2021/03/26 10:57:03;;;;;;;21.15;10.52;;;14.60;53.30;;;;;;4946111;29;20477;-90
2021/03/26 10:59:34;;;;;;;22.27;10.73;;;14.80;50.10;;;;;;4950111;29;20473;-92
2021/03/26 11:02:43;;;;;;;22.77;11.93;;;14.50;51.80;;;;;;4947641;29;20912;-91
2021/03/26 11:05:25;;;;;;;21.55;11.07;;;14.50;50.80;;;;;;4929705;28;20489;-94
2021/03/26 11:08:00;;;;;;;20.17;10.18;;;14.60;52.30;;;;;;4946043;29;20540;-91
2021/03/26 11:11:08;;;;;;;20.90;10.80;;;14.70;50.40;;;;;;4947703;29;20425;-91
2021/03/26 11:14:01;;;;;;;23.63;10.98;;;14.80;50.70;;;;;;4984796;28;20417;-93
2021/03/26 11:16:41;;;;;;;19.35;10.00;;;14.60;52.40;;;;;;5014682;28;20444;-91
2021/03/26 11:19:33;;;;;;;23.10;11.68;;;14.80;51.90;;;;;;5014534;28;20965;-94
2021/03/26 11:22:15;;;;;;;21.42;11.10;;;15.00;49.40;;;;;;5014306;28;20507;-94
2021/03/26 11:24:59;;;;;;;23.00;10.05;;;15.10;49.60;;;;;;5014426;28;20428;-94
2021/03/26 11:27:37;;;;;;;20.97;10.87;;;15.40;48.50;;;;;;5016005;28;20432;-92
2021/03/26 11:30:35;;;;;;;19.70;10.70;;;15.40;48.40;;;;;;5014918;28;20489;-93
2021/03/26 11:33:40;;;;;;;25.17;11.30;;;15.30;48.20;;;;;;5014473;28;20421;-93
2021/03/26 11:36:32;;;;;;;22.08;11.20;;;15.50;47.60;;;;;;5014250;28;20490;-92
2021/03/26 11:39:06;;;;;;;20.33;10.32;;;15.80;49.30;;;;;;5014378;28;20424;-93
2021/03/26 11:41:42;;;;;;;19.73;10.40;;;16.00;45.00;;;;;;5013908;28;20427;-93
2021/03/26 11:44:14;;;;;;;23.02;9.60;;;15.80;43.50;;;;;;5013968;28;20435;-92
2021/03/26 11:46:44;;;;;;;18.90;9.50;;;16.10;46.50;;;;;;5014704;28;20504;-93
2021/03/26 11:49:22;;;;;;;18.60;9.98;;;16.80;45.80;;;;;;5014339;28;20457;-94
2021/03/26 11:51:58;;;;;;;18.95;9.32;;;16.60;42.90;;;;;;5014074;28;20939;-93
2021/03/26 11:54:43;;;;;;;18.85;10.43;;;16.20;43.90;;;;;;5013955;28;20432;-93
2021/03/26 11:57:38;;;;;;;17.80;10.15;;;16.40;43.50;;;;;;5013971;28;20449;-92
2021/03/26 12:00:38;;;;;;;18.73;9.57;;;16.50;44.70;;;;;;5013706;28;20951;-93
2021/03/26 12:03:43;;;;;;;22.03;9.77;;;17.00;42.10;;;;;;4957650;28;20796;-93
2021/03/26 12:06:24;;;;;;;18.00;10.40;;;17.70;43.00;;;;;;4957409;28;20422;-93
2021/03/26 12:09:03;;;;;;;23.75;11.07;;;17.10;41.40;;;;;;4959124;28;20432;-93
2021/03/26 12:11:53;;;;;;;19.63;11.07;;;17.30;41.50;;;;;;4957930;28;20426;-94
2021/03/26 12:14:43;;;;;;;18.25;10.75;;;17.60;40.50;;;;;;4931461;28;20427;-93
2021/03/26 12:17:30;;;;;;;16.90;9.77;;;17.90;42.40;;;;;;4950438;28;20444;-93
2021/03/26 12:20:09;;;;;;;18.25;9.90;;;18.20;39.70;;;;;;4944799;28;20428;-94
2021/03/26 12:23:00;;;;;;;20.13;10.55;;;17.70;41.10;;;;;;4957028;28;21013;-93
2021/03/26 12:25:43;;;;;;;18.80;10.15;;;17.50;39.00;;;;;;4958911;28;20437;-91
2021/03/26 12:28:19;;;;;;;19.63;10.38;;;17.70;40.90;;;;;;4957647;28;20435;-93
2021/03/26 12:30:59;;;;;;;22.27;11.30;;;18.00;39.70;;;;;;4957345;28;20417;-94
2021/03/26 12:33:37;;;;;;;20.23;11.15;;;17.90;39.00;;;;;;4957602;28;20428;-93
2021/03/26 12:36:16;;;;;;;19.57;11.00;;;17.40;39.20;;;;;;4957787;28;20427;-93
2021/03/26 12:39:10;;;;;;;17.30;9.02;;;17.60;41.50;;;;;;4985736;28;20421;-95
2021/03/26 12:42:01;;;;;;;16.40;9.98;;;17.90;38.60;;;;;;5014460;28;20424;-93
2021/03/26 12:44:41;;;;;;;15.05;8.65;;;17.90;39.60;;;;;;5017110;28;20424;-96
2021/03/26 12:47:16;;;;;;;14.98;8.15;;;18.40;35.80;;;;;;5014469;28;20772;-96
2021/03/26 12:49:52;;;;;;;16.48;8.98;;;18.50;35.90;;;;;;5014083;28;20479;-95
2021/03/26 12:52:39;;;;;;;18.48;8.65;;;18.70;36.10;;;;;;5015476;28;20926;-96
2021/03/26 12:55:21;;;;;;;17.23;9.33;;;19.10;35.40;;;;;;5017852;28;20424;-95
2021/03/26 12:57:51;;;;;;;14.80;8.98;;;18.70;35.00;;;;;;5014073;28;20443;-95
2021/03/26 13:00:37;;;;;;;14.73;8.80;;;18.50;36.00;;;;;;5016712;28;20499;-93
2021/03/26 13:03:43;;;;;;;11.95;6.28;;;18.50;35.50;;;;;;5025191;28;20500;-96
2021/03/26 13:06:40;;;;;;;11.43;6.88;;;18.20;32.20;;;;;;4975166;28;20454;-96
2021/03/26 13:09:57;;;;;;;13.20;7.73;;;18.90;34.30;;;;;;4969631;28;20903;-96
2021/03/26 13:13:03;;;;;;;15.73;7.28;;;19.80;34.50;;;;;;4957463;28;20446;-95
2021/03/26 13:26:07;;;;;;;11.00;5.95;;;20.70;28.00;;;;;;4977791;28;20397;-96
2021/03/26 13:29:52;;;;;;;12.60;6.85;;;19.60;29.50;;;;;;4935541;29;20448;-95
2021/03/26 13:33:37;;;;;;;15.30;7.93;;;19.20;32.20;;;;;;4931213;29;20476;-95
2021/03/26 13:37:18;;;;;;;17.08;8.65;;;20.20;32.20;;;;;;4934637;29;20408;-96
2021/03/26 13:40:38;;;;;;;17.02;8.30;;;19.50;32.90;;;;;;4935988;28;20542;-95
2021/03/26 13:43:45;;;;;;;9.90;5.63;;;20.30;32.70;;;;;;4897572;29;20506;-95
2021/03/26 13:46:31;;;;;;;10.82;6.65;;;20.20;27.90;;;;;;4890238;29;20424;-94
2021/03/26 13:53:57;;;;;;;14.55;7.07;;;20.60;29.40;;;;;;4880114;29;20422;-96
2021/03/26 14:01:03;;;;;;;14.40;6.95;;;20.30;29.50;;;;;;5008356;22;20435;-96
2021/03/26 14:03:41;;;;;;;16.30;7.63;;;19.50;29.40;;;;;;5018060;28;20443;-96
2021/03/26 14:06:58;;;;;;;16.60;8.40;;;18.80;33.50;;;;;;5017017;28;20425;-96
2021/03/26 14:10:46;;;;;;;15.90;7.97;;;18.50;31.70;;;;;;4989884;28;20428;-96
2021/03/26 14:14:09;;;;;;;16.50;7.18;;;19.40;33.80;;;;;;4932342;29;20458;-95
2021/03/26 14:17:36;;;;;;;12.30;7.20;;;20.60;30.70;;;;;;4882857;29;20456;-94
2021/03/26 14:21:24;;;;;;;8.82;5.40;;;21.10;31.00;;;;;;4884858;29;20447;-94
2021/03/26 14:27:09;;;;;;;12.70;6.70;;;20.70;29.20;;;;;;4350019;22;20403;-92
2021/03/26 14:49:12;;;;;;;15.60;7.03;;;20.70;29.40;;;;;;5010715;28;20534;-94
2021/03/26 15:09:27;;;;;;;14.20;6.88;;;21.10;29.00;;;;;;4897350;29;20441;-93
2021/03/26 15:13:01;;;;;;;12.80;6.10;;;20.70;28.50;;;;;;4909708;29;20611;-94
2021/03/26 15:16:43;;;;;;;12.93;5.90;;;20.80;28.60;;;;;;4875663;29;20418;-93
2021/03/26 15:20:41;;;;;;;14.00;6.72;;;20.90;28.20;;;;;;4860419;29;20589;-95
2021/03/26 15:24:22;;;;;;;12.75;6.97;;;20.40;28.60;;;;;;4841918;29;20625;-94
2021/03/26 15:31:31;;;;;;;12.50;6.90;;;20.30;28.80;;;;;;4805522;29;20458;-95
2021/03/26 16:27:36;;;;;;;10.38;4.72;;;18.30;31.20;;;;;;4920492;29;20460;-94
2021/03/26 16:30:15;;;;;;;9.48;5.57;;;18.20;31.90;;;;;;4906789;29;20449;-96
2021/03/26 16:32:51;;;;;;;11.73;5.57;;;18.10;31.40;;;;;;4901747;29;20437;-96
2021/03/26 16:35:39;;;;;;;10.90;4.85;;;18.10;32.30;;;;;;4901332;29;20460;-96
2021/03/26 16:38:29;;;;;;;9.32;4.70;;;18.20;33.60;;;;;;4901371;29;20443;-95
2021/03/26 16:40:56;;;;;;;10.70;5.33;;;18.20;32.80;;;;;;4901829;29;20431;-96
2021/03/26 16:43:30;;;;;;;12.73;7.00;;;17.90;32.40;;;;;;4901628;29;20437;-96
2021/03/26 16:46:27;;;;;;;9.63;5.35;;;17.70;33.80;;;;;;4901575;29;20429;-96
2021/03/26 16:49:10;;;;;;;11.00;5.53;;;17.70;34.00;;;;;;4901084;29;20489;-96
2021/03/26 16:52:07;;;;;;;9.45;5.47;;;17.60;34.20;;;;;;4901114;29;20500;-92
2021/03/26 16:54:46;;;;;;;11.70;5.53;;;17.50;34.80;;;;;;4902532;29;20437;-94
2021/03/26 16:57:49;;;;;;;10.07;5.10;;;17.30;34.70;;;;;;4901369;29;22897;-95
2021/03/26 17:00:22;;;;;;;8.70;5.13;;;17.10;36.00;;;;;;4902805;29;20433;-95
2021/03/26 17:02:58;;;;;;;11.10;5.80;;;16.80;37.80;;;;;;4902456;29;20504;-96
2021/03/26 17:05:46;;;;;;;11.35;5.65;;;16.40;39.80;;;;;;4902173;29;20437;-94
2021/03/26 17:08:55;;;;;;;8.55;5.15;;;16.10;41.40;;;;;;4901470;29;20933;-93
2021/03/26 17:12:06;;;;;;;14.40;6.07;;;15.70;42.30;;;;;;4868414;29;20440;-95
2021/03/26 17:14:50;;;;;;;10.00;4.95;;;14.80;44.40;;;;;;4863714;29;20444;-96
2021/03/26 17:17:50;;;;;;;9.18;4.50;;;14.00;46.00;;;;;;4867648;29;20436;-95
2021/03/26 17:20:35;;;;;;;10.50;4.38;;;13.20;48.10;;;;;;4871776;29;20436;-96
2021/03/26 17:23:20;;;;;;;9.47;4.70;;;12.20;50.50;;;;;;4880332;29;20516;-95
2021/03/26 17:26:40;;;;;;;11.23;4.72;;;11.40;51.80;;;;;;4886223;29;20504;-96
2021/03/26 17:29:38;;;;;;;9.30;4.60;;;10.90;55.40;;;;;;4925893;29;20433;-94
2021/03/26 17:33:01;;;;;;;11.27;5.18;;;10.30;55.60;;;;;;4928437;29;20520;-96
2021/03/26 17:36:08;;;;;;;12.52;5.60;;;9.90;57.20;;;;;;4931401;29;20430;-95
2021/03/26 17:39:30;;;;;;;11.13;5.33;;;9.70;57.10;;;;;;4928332;29;20425;-96
2021/03/26 17:42:38;;;;;;;15.00;5.32;;;9.50;58.40;;;;;;4917132;29;20536;-96
2021/03/26 17:45:37;;;;;;;15.73;6.20;;;9.30;59.60;;;;;;4914934;29;20445;-95
2021/03/26 17:53:02;;;;;;;12.13;5.85;;;9.00;62.30;;;;;;4890093;29;21031;-93
2021/03/26 17:56:02;;;;;;;11.65;5.78;;;8.70;63.90;;;;;;4868301;29;20508;-96
2021/03/26 17:58:50;;;;;;;10.38;5.13;;;8.40;65.50;;;;;;4887590;29;20433;-94
2021/03/26 18:02:04;;;;;;;11.40;5.45;;;8.10;67.60;;;;;;4877537;29;20592;-96
2021/03/26 18:05:49;;;;;;;13.80;5.60;;;7.90;68.00;;;;;;4859329;29;20439;-96
2021/03/26 18:08:28;;;;;;;16.50;6.45;;;7.80;69.10;;;;;;4857204;29;20442;-96
2021/03/26 18:11:46;;;;;;;11.85;6.15;;;7.70;68.90;;;;;;4858508;29;20435;-96
2021/03/26 18:15:35;;;;;;;15.35;6.97;;;7.80;69.80;;;;;;4821266;29;20783;-96
2021/03/26 18:19:00;;;;;;;15.10;6.68;;;7.70;68.80;;;;;;4804867;30;20525;-95
2021/03/26 18:22:17;;;;;;;18.73;7.70;;;7.90;69.50;;;;;;4803430;30;20435;-93
2021/03/26 18:25:57;;;;;;;18.30;8.60;;;7.80;71.30;;;;;;4804448;29;20460;-95
2021/03/26 18:29:26;;;;;;;20.52;7.97;;;7.30;72.80;;;;;;4764345;30;20482;-95
2021/03/26 18:33:02;;;;;;;18.50;8.70;;;7.20;72.90;;;;;;4729446;30;20450;-96
2021/03/26 18:36:11;;;;;;;18.52;8.98;;;7.30;74.70;;;;;;4752440;30;20485;-96
2021/03/26 18:39:03;;;;;;;18.47;8.40;;;7.30;74.50;;;;;;4758212;30;20539;-94
2021/03/26 18:42:04;;;;;;;18.33;7.45;;;7.40;73.60;;;;;;4757089;30;20512;-94
2021/03/26 18:45:05;;;;;;;15.52;7.28;;;7.50;72.90;;;;;;4757340;30;20464;-94
2021/03/26 18:48:08;;;;;;;18.43;7.80;;;7.50;74.40;;;;;;4757629;30;20521;-94
2021/03/26 18:51:17;;;;;;;21.55;8.77;;;7.30;73.00;;;;;;4775024;30;20750;-95
2021/03/26 18:54:22;;;;;;;22.92;9.30;;;7.30;72.60;;;;;;4793799;29;20459;-93
2021/03/26 18:57:11;;;;;;;20.50;9.30;;;7.60;72.30;;;;;;4794361;29;20559;-95
2021/03/26 18:59:57;;;;;;;18.67;7.50;;;7.50;70.50;;;;;;4802229;29;20616;-93
2021/03/26 19:02:58;;;;;;;23.27;8.07;;;7.70;70.70;;;;;;4835879;29;20442;-94
2021/03/26 19:06:16;;;;;;;19.50;7.57;;;7.60;70.40;;;;;;4835401;29;20483;-96
2021/03/26 19:09:23;;;;;;;14.70;6.93;;;7.80;70.10;;;;;;4869488;29;20460;-95
2021/03/26 19:12:36;;;;;;;18.42;7.78;;;7.80;70.10;;;;;;4885781;29;20452;-96
2021/03/26 19:15:43;;;;;;;17.00;7.80;;;7.60;70.60;;;;;;4889917;29;20930;-89
2021/03/26 19:18:12;;;;;;;20.35;9.35;;;7.60;71.20;;;;;;4880648;29;20445;-93
2021/03/26 19:21:17;;;;;;;25.35;10.60;;;7.60;70.80;;;;;;4880559;29;21036;-94
2021/03/26 19:24:05;;;;;;;21.92;8.23;;;7.50;71.40;;;;;;4865702;29;20436;-93
2021/03/26 19:27:26;;;;;;;20.23;9.20;;;7.40;72.20;;;;;;4871832;29;20441;-94
2021/03/26 19:30:45;;;;;;;21.05;9.35;;;7.40;71.60;;;;;;5382106;22;21618;-90
2021/03/26 19:34:18;;;;;;;22.73;7.90;;;7.40;71.60;;;;;;5097642;23;20448;-93
2021/03/26 19:37:28;;;;;;;18.43;8.47;;;7.30;72.50;;;;;;4967702;29;20410;-92
2021/03/26 19:40:51;;;;;;;19.08;8.02;;;7.20;73.10;;;;;;4951852;29;20416;-91
2021/03/26 19:44:23;;;;;;;20.20;8.73;;;7.20;72.60;;;;;;4929255;29;20436;-92
2021/03/26 19:47:29;;;;;;;20.92;10.05;;;7.40;71.80;;;;;;4902601;29;20456;-91
2021/03/26 19:50:40;;;;;;;26.60;10.75;;;7.40;71.80;;;;;;4909211;29;20455;-91